sensor_id;sensor_type;location;lat;lon;timestamp;temperature;humidity
429;DHT22;201;48.758;9.290;2023-06-04T00:01:21;16.40;1.00
429;DHT22;201;48.758;9.290;2023-06-04T00:03:47;16.40;1.00
429;DHT22;201;48.758;9.290;2023-06-04T00:06:12;16.40;1.00
429;DHT22;201;48.758;9.290;2023-06-04T00:08:38;16.40;1.00
429;DHT22;201;48.758;9.290;2023-06-04T00:11:03;16.30;1.00
429;DHT22;201;48.758;9.290;2023-06-04T00:13:29;16.30;1.00
429;DHT22;201;48.758;9.290;2023-06-04T00:15:54;16.20;1.00
429;DHT22;201;48.758;9.290;2023-06-04T00:18:20;16.20;1.00
429;DHT22;201;48.758;9.290;2023-06-04T00:20:45;16.20;1.00
429;DHT22;201;48.758;9.290;2023-06-04T00:23:11;16.20;1.00
429;DHT22;201;48.758;9.290;2023-06-04T00:25:36;16.10;1.00
429;DHT22;201;48.758;9.290;2023-06-04T00:28:02;16.00;1.00
429;DHT22;201;48.758;9.290;2023-06-04T00:30:28;15.90;1.00
429;DHT22;201;48.758;9.290;2023-06-04T00:32:53;15.90;1.00
429;DHT22;201;48.758;9.290;2023-06-04T00:35:19;15.80;1.00
429;DHT22;201;48.758;9.290;2023-06-04T00:37:45;15.80;1.00
429;DHT22;201;48.758;9.290;2023-06-04T00:40:11;15.70;1.00
429;DHT22;201;48.758;9.290;2023-06-04T00:42:37;15.70;1.00
429;DHT22;201;48.758;9.290;2023-06-04T00:45:03;15.60;1.00
429;DHT22;201;48.758;9.290;2023-06-04T00:47:35;15.60;1.00
429;DHT22;201;48.758;9.290;2023-06-04T00:50:00;15.60;1.00
429;DHT22;201;48.758;9.290;2023-06-04T00:52:26;15.60;1.00
429;DHT22;201;48.758;9.290;2023-06-04T00:54:52;15.50;1.00
429;DHT22;201;48.758;9.290;2023-06-04T00:57:20;15.50;1.00
429;DHT22;201;48.758;9.290;2023-06-04T00:59:46;15.50;1.00
429;DHT22;201;48.758;9.290;2023-06-04T01:02:18;15.50;1.00
429;DHT22;201;48.758;9.290;2023-06-04T01:07:20;15.50;1.00
429;DHT22;201;48.758;9.290;2023-06-04T01:09:47;15.50;1.00
429;DHT22;201;48.758;9.290;2023-06-04T01:12:13;15.40;1.00
429;DHT22;201;48.758;9.290;2023-06-04T01:14:38;15.40;1.00
429;DHT22;201;48.758;9.290;2023-06-04T01:17:10;15.40;1.00
429;DHT22;201;48.758;9.290;2023-06-04T01:25:34;15.30;1.00
429;DHT22;201;48.758;9.290;2023-06-04T01:28:05;15.40;1.00
429;DHT22;201;48.758;9.290;2023-06-04T01:30:33;15.40;1.00
429;DHT22;201;48.758;9.290;2023-06-04T01:33:02;15.40;1.00
429;DHT22;201;48.758;9.290;2023-06-04T01:35:29;15.30;1.00
429;DHT22;201;48.758;9.290;2023-06-04T01:37:58;15.30;1.00
429;DHT22;201;48.758;9.290;2023-06-04T01:40:24;15.30;1.00
429;DHT22;201;48.758;9.290;2023-06-04T01:42:50;15.30;1.00
429;DHT22;201;48.758;9.290;2023-06-04T01:45:16;15.20;1.00
429;DHT22;201;48.758;9.290;2023-06-04T01:47:41;15.20;1.00
429;DHT22;201;48.758;9.290;2023-06-04T01:50:07;15.20;1.00
429;DHT22;201;48.758;9.290;2023-06-04T01:52:35;15.10;1.00
429;DHT22;201;48.758;9.290;2023-06-04T01:55:02;15.10;1.00
429;DHT22;201;48.758;9.290;2023-06-04T01:57:27;15.10;1.00
429;DHT22;201;48.758;9.290;2023-06-04T01:59:53;15.00;1.00
429;DHT22;201;48.758;9.290;2023-06-04T02:02:18;15.00;1.00
429;DHT22;201;48.758;9.290;2023-06-04T02:04:44;15.00;1.00
429;DHT22;201;48.758;9.290;2023-06-04T02:07:10;15.00;1.00
429;DHT22;201;48.758;9.290;2023-06-04T02:09:39;15.00;1.00
429;DHT22;201;48.758;9.290;2023-06-04T02:12:06;15.00;1.00
429;DHT22;201;48.758;9.290;2023-06-04T02:14:31;14.90;1.00
429;DHT22;201;48.758;9.290;2023-06-04T02:16:57;14.90;1.00
429;DHT22;201;48.758;9.290;2023-06-04T02:19:24;14.90;1.00
429;DHT22;201;48.758;9.290;2023-06-04T02:21:51;14.80;1.00
429;DHT22;201;48.758;9.290;2023-06-04T02:24:17;14.80;1.00
429;DHT22;201;48.758;9.290;2023-06-04T02:26:42;14.80;1.00
429;DHT22;201;48.758;9.290;2023-06-04T02:29:08;14.80;1.00
429;DHT22;201;48.758;9.290;2023-06-04T02:31:33;14.70;1.00
429;DHT22;201;48.758;9.290;2023-06-04T02:33:59;14.70;1.00
429;DHT22;201;48.758;9.290;2023-06-04T02:36:24;14.70;1.00
429;DHT22;201;48.758;9.290;2023-06-04T02:38:50;14.60;1.00
429;DHT22;201;48.758;9.290;2023-06-04T02:41:16;14.70;1.00
429;DHT22;201;48.758;9.290;2023-06-04T02:43:42;14.60;1.00
429;DHT22;201;48.758;9.290;2023-06-04T02:46:07;14.60;1.00
429;DHT22;201;48.758;9.290;2023-06-04T02:48:33;14.60;1.00
429;DHT22;201;48.758;9.290;2023-06-04T02:50:58;14.60;1.00
429;DHT22;201;48.758;9.290;2023-06-04T02:53:24;14.50;1.00
429;DHT22;201;48.758;9.290;2023-06-04T02:55:49;14.50;1.00
429;DHT22;201;48.758;9.290;2023-06-04T02:58:17;14.50;1.00
429;DHT22;201;48.758;9.290;2023-06-04T03:00:42;14.40;1.00
429;DHT22;201;48.758;9.290;2023-06-04T03:03:08;14.30;1.00
429;DHT22;201;48.758;9.290;2023-06-04T03:05:33;14.40;1.00
429;DHT22;201;48.758;9.290;2023-06-04T03:08:01;14.30;1.00
429;DHT22;201;48.758;9.290;2023-06-04T03:10:27;14.20;1.00
429;DHT22;201;48.758;9.290;2023-06-04T03:12:53;14.10;1.00
429;DHT22;201;48.758;9.290;2023-06-04T03:15:18;14.10;1.00
429;DHT22;201;48.758;9.290;2023-06-04T03:17:44;14.00;1.00
429;DHT22;201;48.758;9.290;2023-06-04T03:20:10;14.00;1.00
429;DHT22;201;48.758;9.290;2023-06-04T03:22:35;13.90;1.00
429;DHT22;201;48.758;9.290;2023-06-04T03:25:02;13.90;1.00
429;DHT22;201;48.758;9.290;2023-06-04T03:27:29;13.80;1.00
429;DHT22;201;48.758;9.290;2023-06-04T03:29:55;13.70;1.00
429;DHT22;201;48.758;9.290;2023-06-04T03:32:21;13.70;1.00
429;DHT22;201;48.758;9.290;2023-06-04T03:34:46;13.70;1.00
429;DHT22;201;48.758;9.290;2023-06-04T03:37:12;13.70;1.00
429;DHT22;201;48.758;9.290;2023-06-04T03:39:37;13.80;1.00
429;DHT22;201;48.758;9.290;2023-06-04T03:42:03;13.80;1.00
429;DHT22;201;48.758;9.290;2023-06-04T03:44:29;13.80;1.00
429;DHT22;201;48.758;9.290;2023-06-04T03:46:54;13.80;1.00
429;DHT22;201;48.758;9.290;2023-06-04T03:49:20;13.90;1.00
429;DHT22;201;48.758;9.290;2023-06-04T03:51:47;13.80;1.00
429;DHT22;201;48.758;9.290;2023-06-04T03:54:12;13.80;1.00
429;DHT22;201;48.758;9.290;2023-06-04T03:56:43;13.90;1.00
429;DHT22;201;48.758;9.290;2023-06-04T03:59:08;13.90;1.00
429;DHT22;201;48.758;9.290;2023-06-04T04:01:33;14.00;1.00
429;DHT22;201;48.758;9.290;2023-06-04T04:03:59;14.10;1.00
429;DHT22;201;48.758;9.290;2023-06-04T04:06:25;14.10;1.00
429;DHT22;201;48.758;9.290;2023-06-04T04:08:50;14.20;1.00
429;DHT22;201;48.758;9.290;2023-06-04T04:11:16;14.30;1.00
429;DHT22;201;48.758;9.290;2023-06-04T04:13:44;14.30;1.00
429;DHT22;201;48.758;9.290;2023-06-04T04:16:10;14.30;1.00
429;DHT22;201;48.758;9.290;2023-06-04T04:18:36;14.40;1.00
429;DHT22;201;48.758;9.290;2023-06-04T04:21:03;14.50;1.00
429;DHT22;201;48.758;9.290;2023-06-04T04:23:30;14.50;1.00
429;DHT22;201;48.758;9.290;2023-06-04T04:25:58;14.50;1.00
429;DHT22;201;48.758;9.290;2023-06-04T04:28:24;14.50;1.00
429;DHT22;201;48.758;9.290;2023-06-04T04:30:49;14.40;1.00
429;DHT22;201;48.758;9.290;2023-06-04T04:33:15;14.40;1.00
429;DHT22;201;48.758;9.290;2023-06-04T04:35:42;14.40;1.00
429;DHT22;201;48.758;9.290;2023-06-04T04:38:08;14.40;1.00
429;DHT22;201;48.758;9.290;2023-06-04T04:40:35;14.50;1.00
429;DHT22;201;48.758;9.290;2023-06-04T04:43:01;14.70;1.00
429;DHT22;201;48.758;9.290;2023-06-04T04:45:26;14.70;1.00
429;DHT22;201;48.758;9.290;2023-06-04T04:47:51;14.90;1.00
429;DHT22;201;48.758;9.290;2023-06-04T04:50:17;15.00;1.00
429;DHT22;201;48.758;9.290;2023-06-04T04:52:43;15.10;1.00
429;DHT22;201;48.758;9.290;2023-06-04T04:55:09;15.20;1.00
429;DHT22;201;48.758;9.290;2023-06-04T04:57:34;15.30;1.00
429;DHT22;201;48.758;9.290;2023-06-04T05:00:01;15.50;1.00
429;DHT22;201;48.758;9.290;2023-06-04T05:02:26;15.60;1.00
429;DHT22;201;48.758;9.290;2023-06-04T05:04:52;15.80;1.00
429;DHT22;201;48.758;9.290;2023-06-04T05:07:17;15.90;1.00
429;DHT22;201;48.758;9.290;2023-06-04T05:09:45;16.00;1.00
429;DHT22;201;48.758;9.290;2023-06-04T05:12:10;16.20;1.00
429;DHT22;201;48.758;9.290;2023-06-04T05:14:36;16.50;1.00
429;DHT22;201;48.758;9.290;2023-06-04T05:17:02;16.90;1.00
429;DHT22;201;48.758;9.290;2023-06-04T05:19:31;17.40;1.00
429;DHT22;201;48.758;9.290;2023-06-04T05:21:58;17.70;1.00
429;DHT22;201;48.758;9.290;2023-06-04T05:24:24;17.80;1.00
429;DHT22;201;48.758;9.290;2023-06-04T05:26:50;17.90;1.00
429;DHT22;201;48.758;9.290;2023-06-04T05:29:15;18.00;1.00
429;DHT22;201;48.758;9.290;2023-06-04T05:31:41;18.00;1.00
429;DHT22;201;48.758;9.290;2023-06-04T05:34:06;18.20;1.00
429;DHT22;201;48.758;9.290;2023-06-04T05:36:32;19.00;1.00
429;DHT22;201;48.758;9.290;2023-06-04T05:38:57;19.90;1.00
429;DHT22;201;48.758;9.290;2023-06-04T05:41:32;20.30;1.00
429;DHT22;201;48.758;9.290;2023-06-04T05:43:57;21.10;1.00
429;DHT22;201;48.758;9.290;2023-06-04T05:46:23;22.10;1.00
429;DHT22;201;48.758;9.290;2023-06-04T05:48:48;22.50;1.00
429;DHT22;201;48.758;9.290;2023-06-04T05:51:14;22.50;1.00
429;DHT22;201;48.758;9.290;2023-06-04T05:53:40;23.00;1.00
429;DHT22;201;48.758;9.290;2023-06-04T05:56:05;22.80;1.00
429;DHT22;201;48.758;9.290;2023-06-04T05:58:33;22.90;1.00
429;DHT22;201;48.758;9.290;2023-06-04T06:00:59;22.70;1.00
429;DHT22;201;48.758;9.290;2023-06-04T06:03:25;22.70;1.00
429;DHT22;201;48.758;9.290;2023-06-04T06:05:52;23.00;1.00
429;DHT22;201;48.758;9.290;2023-06-04T06:08:19;22.90;1.00
429;DHT22;201;48.758;9.290;2023-06-04T06:10:45;22.60;1.00
429;DHT22;201;48.758;9.290;2023-06-04T06:13:11;22.50;1.00
429;DHT22;201;48.758;9.290;2023-06-04T06:15:36;23.60;1.00
429;DHT22;201;48.758;9.290;2023-06-04T06:18:02;24.80;1.00
429;DHT22;201;48.758;9.290;2023-06-04T06:20:27;25.60;1.00
429;DHT22;201;48.758;9.290;2023-06-04T06:22:54;25.70;1.00
429;DHT22;201;48.758;9.290;2023-06-04T06:25:20;26.10;1.00
429;DHT22;201;48.758;9.290;2023-06-04T06:27:45;26.70;1.00
429;DHT22;201;48.758;9.290;2023-06-04T06:30:11;26.70;1.00
429;DHT22;201;48.758;9.290;2023-06-04T06:32:37;27.30;1.00
429;DHT22;201;48.758;9.290;2023-06-04T06:35:03;27.60;1.00
429;DHT22;201;48.758;9.290;2023-06-04T06:37:29;28.80;1.00
429;DHT22;201;48.758;9.290;2023-06-04T06:39:54;29.70;1.00
429;DHT22;201;48.758;9.290;2023-06-04T06:42:20;30.00;1.00
429;DHT22;201;48.758;9.290;2023-06-04T06:44:45;29.50;1.00
429;DHT22;201;48.758;9.290;2023-06-04T06:47:11;29.10;1.00
429;DHT22;201;48.758;9.290;2023-06-04T06:49:40;28.40;1.00
429;DHT22;201;48.758;9.290;2023-06-04T06:52:06;28.10;1.00
429;DHT22;201;48.758;9.290;2023-06-04T06:54:32;28.30;1.00
429;DHT22;201;48.758;9.290;2023-06-04T06:56:57;29.00;1.00
429;DHT22;201;48.758;9.290;2023-06-04T06:59:23;29.10;1.00
429;DHT22;201;48.758;9.290;2023-06-04T07:01:49;28.40;1.00
429;DHT22;201;48.758;9.290;2023-06-04T07:04:14;27.30;1.00
429;DHT22;201;48.758;9.290;2023-06-04T07:06:41;26.90;1.00
429;DHT22;201;48.758;9.290;2023-06-04T07:09:07;26.80;1.00
429;DHT22;201;48.758;9.290;2023-06-04T07:11:32;26.70;1.00
429;DHT22;201;48.758;9.290;2023-06-04T07:13:58;26.90;1.00
429;DHT22;201;48.758;9.290;2023-06-04T07:16:23;27.60;1.00
429;DHT22;201;48.758;9.290;2023-06-04T07:18:49;27.70;1.00
429;DHT22;201;48.758;9.290;2023-06-04T07:21:15;28.80;1.00
429;DHT22;201;48.758;9.290;2023-06-04T07:23:41;28.50;1.00
429;DHT22;201;48.758;9.290;2023-06-04T07:26:07;29.20;1.00
429;DHT22;201;48.758;9.290;2023-06-04T07:28:33;29.90;1.00
429;DHT22;201;48.758;9.290;2023-06-04T07:30:58;30.00;1.00
429;DHT22;201;48.758;9.290;2023-06-04T07:33:24;29.90;1.00
429;DHT22;201;48.758;9.290;2023-06-04T07:35:50;30.60;1.00
429;DHT22;201;48.758;9.290;2023-06-04T07:38:16;32.30;1.00
429;DHT22;201;48.758;9.290;2023-06-04T07:40:42;34.10;1.00
429;DHT22;201;48.758;9.290;2023-06-04T07:43:07;34.90;1.00
429;DHT22;201;48.758;9.290;2023-06-04T07:45:33;35.20;1.00
429;DHT22;201;48.758;9.290;2023-06-04T07:47:58;35.00;1.00
429;DHT22;201;48.758;9.290;2023-06-04T07:50:24;36.00;1.00
429;DHT22;201;48.758;9.290;2023-06-04T07:52:50;36.70;1.00
429;DHT22;201;48.758;9.290;2023-06-04T07:55:16;36.90;1.00
429;DHT22;201;48.758;9.290;2023-06-04T07:57:42;35.50;1.00
429;DHT22;201;48.758;9.290;2023-06-04T08:00:08;35.70;1.00
429;DHT22;201;48.758;9.290;2023-06-04T08:02:34;35.90;1.00
429;DHT22;201;48.758;9.290;2023-06-04T08:05:00;36.10;1.00
429;DHT22;201;48.758;9.290;2023-06-04T08:07:27;36.80;1.00
429;DHT22;201;48.758;9.290;2023-06-04T08:09:53;37.30;1.00
429;DHT22;201;48.758;9.290;2023-06-04T08:12:21;37.60;1.00
429;DHT22;201;48.758;9.290;2023-06-04T08:14:46;37.70;1.00
429;DHT22;201;48.758;9.290;2023-06-04T08:17:12;37.90;1.00
429;DHT22;201;48.758;9.290;2023-06-04T08:19:37;37.60;1.00
429;DHT22;201;48.758;9.290;2023-06-04T08:22:06;38.30;1.00
429;DHT22;201;48.758;9.290;2023-06-04T08:24:31;36.50;1.00
429;DHT22;201;48.758;9.290;2023-06-04T08:26:57;37.00;1.00
429;DHT22;201;48.758;9.290;2023-06-04T08:29:22;37.80;1.00
429;DHT22;201;48.758;9.290;2023-06-04T08:31:48;39.00;1.00
429;DHT22;201;48.758;9.290;2023-06-04T08:34:13;39.30;1.00
429;DHT22;201;48.758;9.290;2023-06-04T08:36:39;39.00;1.00
429;DHT22;201;48.758;9.290;2023-06-04T08:39:04;39.10;1.00
429;DHT22;201;48.758;9.290;2023-06-04T08:41:49;38.50;1.00
429;DHT22;201;48.758;9.290;2023-06-04T08:44:16;39.10;1.00
429;DHT22;201;48.758;9.290;2023-06-04T08:46:43;39.00;1.00
429;DHT22;201;48.758;9.290;2023-06-04T08:49:09;39.60;1.00
429;DHT22;201;48.758;9.290;2023-06-04T08:51:37;40.20;1.00
429;DHT22;201;48.758;9.290;2023-06-04T08:54:04;39.10;1.00
429;DHT22;201;48.758;9.290;2023-06-04T08:56:31;38.60;1.00
429;DHT22;201;48.758;9.290;2023-06-04T08:59:01;38.20;1.00
429;DHT22;201;48.758;9.290;2023-06-04T09:01:27;37.20;1.00
429;DHT22;201;48.758;9.290;2023-06-04T09:03:54;37.00;1.00
429;DHT22;201;48.758;9.290;2023-06-04T09:06:25;38.00;1.00
429;DHT22;201;48.758;9.290;2023-06-04T09:08:51;38.30;1.00
429;DHT22;201;48.758;9.290;2023-06-04T09:11:18;36.80;1.00
429;DHT22;201;48.758;9.290;2023-06-04T09:13:45;37.70;1.00
429;DHT22;201;48.758;9.290;2023-06-04T09:16:12;38.90;1.00
429;DHT22;201;48.758;9.290;2023-06-04T09:18:37;38.60;1.00
429;DHT22;201;48.758;9.290;2023-06-04T09:21:05;40.40;1.00
429;DHT22;201;48.758;9.290;2023-06-04T09:23:35;40.60;1.00
429;DHT22;201;48.758;9.290;2023-06-04T09:26:10;39.50;1.00
429;DHT22;201;48.758;9.290;2023-06-04T09:28:40;39.30;1.00
429;DHT22;201;48.758;9.290;2023-06-04T09:31:08;39.70;1.00
429;DHT22;201;48.758;9.290;2023-06-04T09:33:47;39.40;1.00
429;DHT22;201;48.758;9.290;2023-06-04T09:36:12;40.20;1.00
429;DHT22;201;48.758;9.290;2023-06-04T09:38:39;40.00;1.00
429;DHT22;201;48.758;9.290;2023-06-04T09:41:11;39.70;1.00
429;DHT22;201;48.758;9.290;2023-06-04T09:43:36;37.50;1.00
429;DHT22;201;48.758;9.290;2023-06-04T09:46:12;36.70;1.00
429;DHT22;201;48.758;9.290;2023-06-04T09:48:38;36.60;1.00
429;DHT22;201;48.758;9.290;2023-06-04T09:51:14;36.60;1.00
429;DHT22;201;48.758;9.290;2023-06-04T09:53:41;37.60;1.00
429;DHT22;201;48.758;9.290;2023-06-04T09:56:07;37.40;1.00
429;DHT22;201;48.758;9.290;2023-06-04T09:58:34;37.10;1.00
429;DHT22;201;48.758;9.290;2023-06-04T10:01:02;38.00;1.00
429;DHT22;201;48.758;9.290;2023-06-04T10:03:31;39.20;1.00
429;DHT22;201;48.758;9.290;2023-06-04T10:05:59;39.80;1.00
429;DHT22;201;48.758;9.290;2023-06-04T10:08:26;40.60;1.00
429;DHT22;201;48.758;9.290;2023-06-04T10:10:54;41.00;1.00
429;DHT22;201;48.758;9.290;2023-06-04T10:13:21;41.80;1.00
429;DHT22;201;48.758;9.290;2023-06-04T10:15:48;39.90;1.00
429;DHT22;201;48.758;9.290;2023-06-04T10:18:15;39.30;1.00
429;DHT22;201;48.758;9.290;2023-06-04T10:20:41;39.40;1.00
429;DHT22;201;48.758;9.290;2023-06-04T10:23:07;40.00;1.00
429;DHT22;201;48.758;9.290;2023-06-04T10:25:35;38.40;1.00
429;DHT22;201;48.758;9.290;2023-06-04T10:28:02;38.20;1.00
429;DHT22;201;48.758;9.290;2023-06-04T10:30:29;37.70;1.00
429;DHT22;201;48.758;9.290;2023-06-04T10:32:56;36.00;1.00
429;DHT22;201;48.758;9.290;2023-06-04T10:35:35;35.40;1.00
429;DHT22;201;48.758;9.290;2023-06-04T10:38:06;35.10;1.00
429;DHT22;201;48.758;9.290;2023-06-04T10:40:33;34.40;1.00
429;DHT22;201;48.758;9.290;2023-06-04T10:43:07;33.60;1.00
429;DHT22;201;48.758;9.290;2023-06-04T10:45:33;32.70;1.00
429;DHT22;201;48.758;9.290;2023-06-04T10:48:03;31.50;1.00
429;DHT22;201;48.758;9.290;2023-06-04T10:50:29;30.00;1.00
429;DHT22;201;48.758;9.290;2023-06-04T10:52:55;29.00;1.00
429;DHT22;201;48.758;9.290;2023-06-04T10:55:23;28.80;1.00
429;DHT22;201;48.758;9.290;2023-06-04T10:57:56;27.70;1.00
429;DHT22;201;48.758;9.290;2023-06-04T11:00:22;27.10;1.00
429;DHT22;201;48.758;9.290;2023-06-04T11:02:54;26.70;1.00
429;DHT22;201;48.758;9.290;2023-06-04T11:05:36;27.00;1.00
429;DHT22;201;48.758;9.290;2023-06-04T11:08:03;27.20;1.00
429;DHT22;201;48.758;9.290;2023-06-04T11:10:36;27.40;1.00
429;DHT22;201;48.758;9.290;2023-06-04T11:13:03;27.60;1.00
429;DHT22;201;48.758;9.290;2023-06-04T11:15:41;27.60;1.00
429;DHT22;201;48.758;9.290;2023-06-04T11:18:06;27.80;1.00
429;DHT22;201;48.758;9.290;2023-06-04T11:20:32;27.70;1.00
429;DHT22;201;48.758;9.290;2023-06-04T11:22:59;27.50;1.00
429;DHT22;201;48.758;9.290;2023-06-04T11:25:26;27.70;1.00
429;DHT22;201;48.758;9.290;2023-06-04T11:27:53;27.90;1.00
429;DHT22;201;48.758;9.290;2023-06-04T11:30:19;28.00;1.00
429;DHT22;201;48.758;9.290;2023-06-04T11:32:46;27.90;1.00
429;DHT22;201;48.758;9.290;2023-06-04T11:35:11;27.70;1.00
429;DHT22;201;48.758;9.290;2023-06-04T11:37:37;27.10;1.00
429;DHT22;201;48.758;9.290;2023-06-04T11:40:15;26.90;1.00
429;DHT22;201;48.758;9.290;2023-06-04T11:42:42;26.90;1.00
429;DHT22;201;48.758;9.290;2023-06-04T11:45:10;26.60;1.00
429;DHT22;201;48.758;9.290;2023-06-04T11:47:36;26.40;1.00
429;DHT22;201;48.758;9.290;2023-06-04T11:50:01;26.10;1.00
429;DHT22;201;48.758;9.290;2023-06-04T11:52:27;25.90;1.00
429;DHT22;201;48.758;9.290;2023-06-04T11:54:53;25.90;1.00
429;DHT22;201;48.758;9.290;2023-06-04T11:57:19;26.20;1.00
429;DHT22;201;48.758;9.290;2023-06-04T11:59:45;26.30;1.00
429;DHT22;201;48.758;9.290;2023-06-04T12:02:10;26.40;1.00
429;DHT22;201;48.758;9.290;2023-06-04T12:04:39;26.50;1.00
429;DHT22;201;48.758;9.290;2023-06-04T12:07:05;26.50;1.00
429;DHT22;201;48.758;9.290;2023-06-04T12:09:32;26.50;1.00
429;DHT22;201;48.758;9.290;2023-06-04T12:12:03;26.30;1.00
429;DHT22;201;48.758;9.290;2023-06-04T12:14:29;26.60;1.00
429;DHT22;201;48.758;9.290;2023-06-04T12:17:05;26.90;1.00
429;DHT22;201;48.758;9.290;2023-06-04T12:19:31;26.90;1.00
429;DHT22;201;48.758;9.290;2023-06-04T12:22:05;26.80;1.00
429;DHT22;201;48.758;9.290;2023-06-04T12:24:33;26.90;1.00
429;DHT22;201;48.758;9.290;2023-06-04T12:27:02;27.10;1.00
429;DHT22;201;48.758;9.290;2023-06-04T12:29:28;26.80;1.00
429;DHT22;201;48.758;9.290;2023-06-04T12:32:05;26.30;1.00
429;DHT22;201;48.758;9.290;2023-06-04T12:34:36;25.90;1.00
429;DHT22;201;48.758;9.290;2023-06-04T12:37:02;25.50;1.00
429;DHT22;201;48.758;9.290;2023-06-04T12:39:32;25.30;1.00
429;DHT22;201;48.758;9.290;2023-06-04T12:41:57;25.50;1.00
429;DHT22;201;48.758;9.290;2023-06-04T12:44:23;25.50;1.00
429;DHT22;201;48.758;9.290;2023-06-04T12:46:50;25.50;1.00
429;DHT22;201;48.758;9.290;2023-06-04T12:49:15;25.60;1.00
429;DHT22;201;48.758;9.290;2023-06-04T12:51:41;25.60;1.00
429;DHT22;201;48.758;9.290;2023-06-04T12:54:06;25.60;1.00
429;DHT22;201;48.758;9.290;2023-06-04T12:56:32;25.90;1.00
429;DHT22;201;48.758;9.290;2023-06-04T12:58:59;25.90;1.00
429;DHT22;201;48.758;9.290;2023-06-04T13:01:24;26.10;1.00
429;DHT22;201;48.758;9.290;2023-06-04T13:03:50;26.20;1.00
429;DHT22;201;48.758;9.290;2023-06-04T13:06:16;25.90;1.00
429;DHT22;201;48.758;9.290;2023-06-04T13:08:41;26.00;1.00
429;DHT22;201;48.758;9.290;2023-06-04T13:11:08;26.10;1.00
429;DHT22;201;48.758;9.290;2023-06-04T13:13:35;26.10;1.00
429;DHT22;201;48.758;9.290;2023-06-04T13:16:01;26.10;1.00
429;DHT22;201;48.758;9.290;2023-06-04T13:18:27;26.20;1.00
429;DHT22;201;48.758;9.290;2023-06-04T13:20:52;26.30;1.00
429;DHT22;201;48.758;9.290;2023-06-04T13:23:18;26.50;1.00
429;DHT22;201;48.758;9.290;2023-06-04T13:25:43;26.50;1.00
429;DHT22;201;48.758;9.290;2023-06-04T13:28:09;26.50;1.00
429;DHT22;201;48.758;9.290;2023-06-04T13:30:35;26.60;1.00
429;DHT22;201;48.758;9.290;2023-06-04T13:33:02;26.70;1.00
429;DHT22;201;48.758;9.290;2023-06-04T13:35:28;26.60;1.00
429;DHT22;201;48.758;9.290;2023-06-04T13:37:53;26.10;1.00
429;DHT22;201;48.758;9.290;2023-06-04T13:40:19;25.70;1.00
429;DHT22;201;48.758;9.290;2023-06-04T13:42:45;25.70;1.00
429;DHT22;201;48.758;9.290;2023-06-04T13:45:11;25.70;1.00
429;DHT22;201;48.758;9.290;2023-06-04T13:47:36;25.90;1.00
429;DHT22;201;48.758;9.290;2023-06-04T13:50:02;26.10;1.00
429;DHT22;201;48.758;9.290;2023-06-04T13:52:28;26.10;1.00
429;DHT22;201;48.758;9.290;2023-06-04T13:54:54;26.20;1.00
429;DHT22;201;48.758;9.290;2023-06-04T13:57:20;26.20;1.00
429;DHT22;201;48.758;9.290;2023-06-04T13:59:46;26.20;1.00
429;DHT22;201;48.758;9.290;2023-06-04T14:02:11;26.30;1.00
429;DHT22;201;48.758;9.290;2023-06-04T14:04:37;26.30;1.00
429;DHT22;201;48.758;9.290;2023-06-04T14:07:02;26.40;1.00
429;DHT22;201;48.758;9.290;2023-06-04T14:09:28;26.40;1.00
429;DHT22;201;48.758;9.290;2023-06-04T14:11:54;26.40;1.00
429;DHT22;201;48.758;9.290;2023-06-04T14:14:20;26.50;1.00
429;DHT22;201;48.758;9.290;2023-06-04T14:16:49;26.50;1.00
429;DHT22;201;48.758;9.290;2023-06-04T14:19:15;26.50;1.00
429;DHT22;201;48.758;9.290;2023-06-04T14:21:43;26.60;1.00
429;DHT22;201;48.758;9.290;2023-06-04T14:24:09;26.60;1.00
429;DHT22;201;48.758;9.290;2023-06-04T14:26:35;26.60;1.00
429;DHT22;201;48.758;9.290;2023-06-04T14:29:01;26.40;1.00
429;DHT22;201;48.758;9.290;2023-06-04T14:31:26;26.20;1.00
429;DHT22;201;48.758;9.290;2023-06-04T14:33:52;25.80;1.00
429;DHT22;201;48.758;9.290;2023-06-04T14:36:18;25.60;1.00
429;DHT22;201;48.758;9.290;2023-06-04T14:38:44;25.60;1.00
429;DHT22;201;48.758;9.290;2023-06-04T14:41:10;25.40;1.00
429;DHT22;201;48.758;9.290;2023-06-04T14:43:36;25.30;1.00
429;DHT22;201;48.758;9.290;2023-06-04T14:46:01;25.30;1.00
429;DHT22;201;48.758;9.290;2023-06-04T14:48:27;25.40;1.00
429;DHT22;201;48.758;9.290;2023-06-04T14:50:52;25.40;1.00
429;DHT22;201;48.758;9.290;2023-06-04T14:53:19;25.40;1.00
429;DHT22;201;48.758;9.290;2023-06-04T14:55:45;25.30;1.00
429;DHT22;201;48.758;9.290;2023-06-04T14:58:14;25.40;1.00
429;DHT22;201;48.758;9.290;2023-06-04T15:00:41;25.40;1.00
429;DHT22;201;48.758;9.290;2023-06-04T15:03:07;25.50;1.00
429;DHT22;201;48.758;9.290;2023-06-04T15:05:32;25.40;1.00
429;DHT22;201;48.758;9.290;2023-06-04T15:07:58;25.50;1.00
429;DHT22;201;48.758;9.290;2023-06-04T15:10:25;25.50;1.00
429;DHT22;201;48.758;9.290;2023-06-04T15:12:51;25.40;1.00
429;DHT22;201;48.758;9.290;2023-06-04T15:15:17;25.50;1.00
429;DHT22;201;48.758;9.290;2023-06-04T15:17:42;25.60;1.00
429;DHT22;201;48.758;9.290;2023-06-04T15:20:08;25.70;1.00
429;DHT22;201;48.758;9.290;2023-06-04T15:22:34;25.70;1.00
429;DHT22;201;48.758;9.290;2023-06-04T15:24:59;25.70;1.00
429;DHT22;201;48.758;9.290;2023-06-04T15:27:25;25.60;1.00
429;DHT22;201;48.758;9.290;2023-06-04T15:29:50;25.60;1.00
429;DHT22;201;48.758;9.290;2023-06-04T15:32:17;25.40;1.00
429;DHT22;201;48.758;9.290;2023-06-04T15:34:43;25.30;1.00
429;DHT22;201;48.758;9.290;2023-06-04T15:37:08;25.20;1.00
429;DHT22;201;48.758;9.290;2023-06-04T15:39:34;25.30;1.00
429;DHT22;201;48.758;9.290;2023-06-04T15:41:59;25.30;1.00
429;DHT22;201;48.758;9.290;2023-06-04T15:44:25;25.20;1.00
429;DHT22;201;48.758;9.290;2023-06-04T15:46:51;25.20;1.00
429;DHT22;201;48.758;9.290;2023-06-04T15:49:17;25.30;1.00
429;DHT22;201;48.758;9.290;2023-06-04T15:51:43;25.30;1.00
429;DHT22;201;48.758;9.290;2023-06-04T15:54:09;25.30;1.00
429;DHT22;201;48.758;9.290;2023-06-04T15:56:34;25.30;1.00
429;DHT22;201;48.758;9.290;2023-06-04T15:59:01;25.20;1.00
429;DHT22;201;48.758;9.290;2023-06-04T16:01:27;25.20;1.00
429;DHT22;201;48.758;9.290;2023-06-04T16:03:53;25.30;1.00
429;DHT22;201;48.758;9.290;2023-06-04T16:06:18;25.20;1.00
429;DHT22;201;48.758;9.290;2023-06-04T16:08:44;25.30;1.00
429;DHT22;201;48.758;9.290;2023-06-04T16:11:10;25.50;1.00
429;DHT22;201;48.758;9.290;2023-06-04T16:13:35;25.50;1.00
429;DHT22;201;48.758;9.290;2023-06-04T16:16:00;25.50;1.00
429;DHT22;201;48.758;9.290;2023-06-04T16:18:26;25.60;1.00
429;DHT22;201;48.758;9.290;2023-06-04T16:20:52;25.60;1.00
429;DHT22;201;48.758;9.290;2023-06-04T16:23:18;25.40;1.00
429;DHT22;201;48.758;9.290;2023-06-04T16:25:44;25.40;1.00
429;DHT22;201;48.758;9.290;2023-06-04T16:28:10;25.20;1.00
429;DHT22;201;48.758;9.290;2023-06-04T16:30:35;25.20;1.00
429;DHT22;201;48.758;9.290;2023-06-04T16:33:01;25.20;1.00
429;DHT22;201;48.758;9.290;2023-06-04T16:35:27;25.10;1.00
429;DHT22;201;48.758;9.290;2023-06-04T16:37:53;25.10;1.00
429;DHT22;201;48.758;9.290;2023-06-04T16:40:19;25.00;1.00
429;DHT22;201;48.758;9.290;2023-06-04T16:42:45;25.00;1.00
429;DHT22;201;48.758;9.290;2023-06-04T16:45:11;25.10;1.00
429;DHT22;201;48.758;9.290;2023-06-04T16:47:37;24.80;1.00
429;DHT22;201;48.758;9.290;2023-06-04T16:50:03;24.70;1.00
429;DHT22;201;48.758;9.290;2023-06-04T16:52:31;24.80;1.00
429;DHT22;201;48.758;9.290;2023-06-04T16:54:57;24.80;1.00